createdAt,value
2023-02-02T00:05:14.906Z,1.02
2023-02-02T00:15:16.560Z,2.08
2023-02-02T00:25:18.238Z,1.65
2023-02-02T00:35:20.143Z,3.15
2023-02-02T00:45:22.224Z,1.30
2023-02-02T00:55:24.205Z,1.15
2023-02-02T01:05:26.199Z,1.23
2023-02-02T01:15:28.062Z,1.75
2023-02-02T01:25:30.482Z,1.20
2023-02-02T01:35:32.412Z,1.48
2023-02-02T01:45:34.051Z,2.10
2023-02-02T01:55:37.580Z,1.67
2023-02-02T02:05:47.051Z,1.35
2023-02-02T02:16:20.287Z,1.83
2023-02-02T02:26:51.706Z,0.77
2023-02-02T02:37:07.750Z,1.58
2023-02-02T02:47:09.940Z,1.70
2023-02-02T02:57:34.240Z,0.98
2023-02-02T03:07:55.576Z,1.17
2023-02-02T03:17:57.122Z,1.02
2023-02-02T03:27:59.015Z,1.63
2023-02-02T03:38:00.545Z,2.15
2023-02-02T03:48:05.875Z,0.52
2023-02-02T04:08:09.096Z,1.13
2023-02-02T04:18:10.690Z,1.17
2023-02-02T04:28:12.171Z,1.75
2023-02-02T04:38:14.004Z,1.67
2023-02-02T04:48:15.543Z,1.42
2023-02-02T04:58:17.107Z,1.25
2023-02-02T05:08:18.812Z,0.95
2023-02-02T05:18:20.363Z,1.42
2023-02-02T05:28:23.193Z,0.80
2023-02-02T05:38:24.880Z,1.25
2023-02-02T05:48:26.983Z,1.75
2023-02-02T05:58:28.688Z,0.73
2023-02-02T06:08:38.868Z,1.05
2023-02-02T06:18:40.501Z,1.45
2023-02-02T06:28:42.983Z,0.77
2023-02-02T06:38:48.615Z,0.70
2023-02-02T06:48:50.153Z,0.70
2023-02-02T06:58:51.685Z,0.57
2023-02-02T07:08:57.679Z,0.82
2023-02-02T07:19:04.386Z,1.08
2023-02-02T07:39:44.601Z,1.00
2023-02-02T07:49:46.308Z,1.02
2023-02-02T07:59:49.131Z,0.93
2023-02-02T08:09:51.525Z,0.85
2023-02-02T08:19:53.026Z,2.47
2023-02-02T08:29:54.596Z,2.03
2023-02-02T08:39:56.349Z,0.93
2023-02-02T08:49:57.947Z,2.65
2023-02-02T08:59:59.695Z,2.20
2023-02-02T09:10:01.273Z,1.92
2023-02-02T09:20:02.932Z,1.27
2023-02-02T09:30:04.931Z,11.25
2023-02-02T09:40:07.272Z,15.55
2023-02-02T09:50:27.707Z,15.75
2023-02-02T10:00:39.683Z,12.75
2023-02-02T10:10:43.349Z,16.17
2023-02-02T10:20:44.929Z,11.30
2023-02-02T10:30:53.693Z,9.35
2023-02-02T10:41:10.632Z,9.45
2023-02-02T10:51:22.891Z,9.88
2023-02-02T11:01:24.568Z,6.00
2023-02-02T11:11:40.427Z,8.55
2023-02-02T11:21:45.852Z,8.85
2023-02-02T11:31:47.845Z,5.85
2023-02-02T11:41:49.423Z,8.57
2023-02-02T11:51:59.914Z,6.90
2023-02-02T12:02:19.956Z,4.85
2023-02-02T12:12:50.400Z,4.68
2023-02-02T12:23:14.044Z,4.03
2023-02-02T12:33:36.859Z,6.10
2023-02-02T12:43:47.575Z,2.95
2023-02-02T12:54:34.962Z,2.72
2023-02-02T13:05:03.396Z,4.25
2023-02-02T13:15:07.927Z,5.88
2023-02-02T13:25:21.269Z,3.33
2023-02-02T13:35:33.341Z,3.40
2023-02-02T13:46:09.218Z,3.35
2023-02-02T13:56:41.791Z,3.08
2023-02-02T14:06:56.823Z,4.07
2023-02-02T14:17:21.568Z,3.07
2023-02-02T14:27:29.281Z,1.35
2023-02-02T14:37:52.446Z,2.38
2023-02-02T14:48:00.618Z,1.38
2023-02-02T14:58:03.974Z,2.22
2023-02-02T15:08:28.614Z,1.13
2023-02-02T15:18:34.764Z,2.75
2023-02-02T15:28:58.513Z,1.92
2023-02-02T15:39:04.500Z,2.17
2023-02-02T15:49:34.267Z,2.75
2023-02-02T15:59:41.254Z,1.85
2023-02-02T16:09:43.047Z,1.67
2023-02-02T16:19:44.949Z,1.75
2023-02-02T16:29:46.845Z,2.55
2023-02-02T16:39:49.161Z,2.45
2023-02-02T16:49:52.271Z,1.00
2023-02-02T16:59:56.472Z,1.08
2023-02-02T17:10:16.706Z,0.60
2023-02-02T17:20:18.689Z,1.75
2023-02-02T17:30:20.963Z,2.10
2023-02-02T17:40:23.930Z,1.27
2023-02-02T17:50:26.599Z,1.85
2023-02-02T18:00:31.299Z,1.23
2023-02-02T18:10:33.473Z,0.83
2023-02-02T18:20:36.430Z,2.33
2023-02-02T18:30:39.132Z,0.60
2023-02-02T18:40:40.923Z,1.30
2023-02-02T18:50:42.413Z,0.90
2023-02-02T19:00:43.976Z,1.08
2023-02-02T19:10:45.550Z,2.72
2023-02-02T19:20:47.607Z,1.98
2023-02-02T19:30:50.567Z,1.17
2023-02-02T19:40:52.063Z,0.45
2023-02-02T19:50:57.823Z,1.02
2023-02-02T20:01:01.238Z,1.13
2023-02-02T20:11:32.102Z,0.70
2023-02-02T20:21:39.256Z,0.75
2023-02-02T20:31:40.761Z,1.00
2023-02-02T20:41:43.799Z,1.05
2023-02-02T20:51:45.356Z,0.98
2023-02-02T21:01:49.715Z,1.27
2023-02-02T21:11:51.464Z,0.70
2023-02-02T21:21:52.931Z,0.77
2023-02-02T21:31:58.663Z,0.75
2023-02-02T21:42:09.535Z,0.93
2023-02-02T21:52:14.881Z,0.30
2023-02-02T22:12:23.018Z,0.45
2023-02-02T22:22:26.851Z,0.60
2023-02-02T22:32:28.301Z,1.45
2023-02-02T22:42:29.752Z,0.65
2023-02-02T22:52:31.186Z,0.35
2023-02-02T23:02:32.754Z,0.77
2023-02-02T23:12:34.775Z,0.45
2023-02-02T23:22:36.363Z,0.65
2023-02-02T23:32:37.811Z,0.55
2023-02-02T23:42:39.346Z,0.85
2023-02-02T23:52:40.826Z,0.30
